Time;durP1;ratioP1;P1;durP2;ratioP2;P2;SDS_P1;SDS_P2;PMS_P1;PMS_P2;Temp;Humidity;BMP_temperature;BMP_pressure;BME280_temperature;BME280_humidity;BME280_pressure;Samples;Min_cycle;Max_cycle;Signal;HPM_P1;HPM_P2
2021/04/05 00:01:47;;;;;;;12.35;8.02;;;5.30;99.90;;;;;;5042288;28;20195;-82
2021/04/05 00:04:14;;;;;;;14.02;8.13;;;5.00;99.90;;;;;;5042321;28;20215;-83
2021/04/05 00:06:40;;;;;;;12.10;8.90;;;5.00;99.90;;;;;;5041899;28;20199;-83
2021/04/05 00:09:07;;;;;;;14.13;9.60;;;5.40;99.90;;;;;;5042130;28;20206;-82
2021/04/05 00:11:33;;;;;;;14.95;9.77;;;5.30;99.90;;;;;;5042079;28;20223;-82
2021/04/05 00:14:00;;;;;;;14.82;8.93;;;4.90;99.90;;;;;;5042605;28;20226;-82
2021/04/05 00:16:27;;;;;;;15.90;9.20;;;5.20;99.90;;;;;;5041938;28;20207;-82
2021/04/05 00:18:53;;;;;;;14.13;8.15;;;4.90;99.90;;;;;;5040947;28;20200;-82
2021/04/05 00:21:21;;;;;;;13.40;9.93;;;4.10;99.90;;;;;;5040273;28;20208;-82
2021/04/05 00:23:49;;;;;;;11.23;8.10;;;4.90;99.90;;;;;;5041408;28;20247;-81
2021/04/05 00:26:15;;;;;;;14.40;9.23;;;5.50;99.90;;;;;;5039038;28;20261;-82
2021/04/05 00:28:42;;;;;;;13.07;8.30;;;4.50;99.90;;;;;;5040870;28;20207;-82
2021/04/05 00:31:09;;;;;;;10.63;8.55;;;3.40;99.90;;;;;;5052356;28;20220;-82
2021/04/05 00:33:35;;;;;;;14.02;8.52;;;5.00;99.90;;;;;;5052355;28;20254;-81
2021/04/05 00:36:01;;;;;;;13.48;8.57;;;4.10;99.90;;;;;;5040326;28;20220;-82
2021/04/05 00:38:27;;;;;;;12.35;7.53;;;5.20;99.90;;;;;;5040434;28;20253;-82
2021/04/05 00:40:59;;;;;;;14.50;8.57;;;5.30;99.90;;;;;;5051587;28;20200;-82
2021/04/05 00:43:26;;;;;;;13.07;8.00;;;4.50;99.90;;;;;;5054082;28;20203;-82
2021/04/05 00:45:52;;;;;;;10.18;7.75;;;4.60;99.90;;;;;;5054820;28;20230;-81
2021/04/05 00:48:19;;;;;;;11.15;8.95;;;4.10;99.90;;;;;;5053759;28;20277;-81
2021/04/05 00:50:49;;;;;;;11.35;7.35;;;4.20;99.90;;;;;;5057625;28;20207;-82
2021/04/05 00:53:18;;;;;;;9.85;7.82;;;4.30;99.90;;;;;;5057975;28;20179;-83
2021/04/05 00:55:46;;;;;;;12.52;8.05;;;5.10;99.90;;;;;;5056947;28;20215;-80
2021/04/05 00:58:13;;;;;;;10.57;7.75;;;3.60;99.90;;;;;;5055589;28;20192;-82
2021/04/05 01:00:42;;;;;;;12.02;8.38;;;5.60;99.90;;;;;;5054095;28;20274;-82
2021/04/05 01:03:10;;;;;;;11.68;8.05;;;3.80;99.90;;;;;;5050855;28;20194;-83
2021/04/05 01:05:39;;;;;;;11.60;7.70;;;6.30;99.90;;;;;;5039675;28;20239;-82
2021/04/05 01:08:07;;;;;;;9.32;6.97;;;4.60;99.90;;;;;;5037401;28;20207;-82
2021/04/05 01:10:33;;;;;;;10.13;8.10;;;4.80;99.90;;;;;;5038109;28;20200;-82
2021/04/05 01:13:00;;;;;;;9.52;8.52;;;4.00;99.90;;;;;;5038779;28;20219;-82
2021/04/05 01:15:26;;;;;;;10.05;7.30;;;4.90;99.90;;;;;;5042437;28;20234;-82
2021/04/05 01:17:52;;;;;;;9.05;7.05;;;3.90;99.90;;;;;;5043187;28;20207;-82
2021/04/05 01:20:19;;;;;;;12.02;8.65;;;3.80;99.90;;;;;;5043117;28;20207;-82
2021/04/05 01:22:47;;;;;;;10.95;7.85;;;3.70;99.90;;;;;;5043197;28;20196;-83
2021/04/05 01:25:16;;;;;;;10.85;6.95;;;4.50;99.90;;;;;;5042357;28;20717;-83
2021/04/05 01:27:43;;;;;;;13.80;7.70;;;4.70;99.90;;;;;;5041561;28;20200;-83
2021/04/05 01:30:12;;;;;;;12.68;8.80;;;3.80;99.90;;;;;;5042815;28;20681;-83
2021/04/05 01:32:39;;;;;;;10.23;7.85;;;4.80;99.90;;;;;;5042427;28;20231;-83
2021/04/05 01:35:08;;;;;;;11.52;8.05;;;5.90;99.90;;;;;;5042507;28;20275;-83
2021/04/05 01:37:34;;;;;;;10.98;7.93;;;4.70;99.90;;;;;;5041156;28;20212;-83
2021/04/05 01:40:01;;;;;;;11.23;7.53;;;4.80;99.90;;;;;;5042244;28;20207;-83
2021/04/05 01:42:27;;;;;;;11.82;7.95;;;4.90;99.90;;;;;;5047120;28;20200;-77
2021/04/05 01:44:53;;;;;;;11.57;7.18;;;4.40;99.90;;;;;;5042995;28;20230;-77
2021/04/05 01:47:19;;;;;;;14.27;9.00;;;4.30;99.90;;;;;;5043452;28;20222;-79
2021/04/05 01:49:45;;;;;;;13.13;8.10;;;5.20;99.90;;;;;;5039519;28;20203;-82
2021/04/05 01:52:13;;;;;;;8.60;7.60;;;4.50;99.90;;;;;;5043129;28;20224;-85
2021/04/05 01:54:39;;;;;;;15.27;8.75;;;4.50;99.90;;;;;;5046879;28;20239;-82
2021/04/05 01:57:08;;;;;;;9.95;7.95;;;5.40;99.90;;;;;;5047563;28;20204;-82
2021/04/05 01:59:35;;;;;;;14.57;8.90;;;4.60;99.90;;;;;;5049009;28;20258;-83
2021/04/05 02:02:01;;;;;;;13.68;8.48;;;4.60;99.90;;;;;;5049848;28;20200;-82
2021/04/05 02:04:28;;;;;;;9.95;8.25;;;4.80;99.90;;;;;;5049624;28;20227;-82
2021/04/05 02:06:54;;;;;;;9.88;7.90;;;3.60;99.90;;;;;;5048767;28;20208;-82
2021/04/05 02:09:20;;;;;;;10.50;8.25;;;4.50;99.90;;;;;;5049190;28;20203;-82
2021/04/05 02:11:47;;;;;;;10.25;7.68;;;4.00;99.90;;;;;;5046120;28;20227;-82
2021/04/05 02:14:14;;;;;;;13.85;8.50;;;4.70;99.90;;;;;;5046512;28;20623;-82
2021/04/05 02:16:44;;;;;;;12.23;8.25;;;5.40;99.90;;;;;;5046205;28;20697;-82
2021/04/05 02:19:14;;;;;;;12.90;9.10;;;4.00;99.90;;;;;;5050854;28;20195;-83
2021/04/05 02:21:41;;;;;;;10.70;7.30;;;3.80;99.90;;;;;;5046533;28;20188;-83
2021/04/05 02:24:08;;;;;;;11.70;8.23;;;4.70;99.90;;;;;;5045905;28;20211;-82
2021/04/05 02:26:36;;;;;;;11.38;9.40;;;4.80;99.90;;;;;;5044453;28;20200;-83
2021/04/05 02:29:04;;;;;;;16.17;8.60;;;3.50;99.90;;;;;;5044549;28;20204;-83
2021/04/05 02:31:33;;;;;;;13.85;8.65;;;4.80;99.90;;;;;;5044224;28;20236;-83
2021/04/05 02:34:00;;;;;;;14.43;10.13;;;4.30;99.90;;;;;;5043098;28;20207;-81
2021/04/05 02:36:29;;;;;;;13.77;9.32;;;3.60;99.90;;;;;;5056247;28;20210;-82
2021/04/05 02:38:56;;;;;;;15.43;9.07;;;4.80;99.90;;;;;;5059731;28;20200;-82
2021/04/05 02:41:24;;;;;;;13.00;9.52;;;4.40;99.90;;;;;;5059684;28;20203;-83
2021/04/05 02:43:51;;;;;;;15.40;9.82;;;4.80;99.90;;;;;;5059094;28;20184;-82
2021/04/05 02:46:20;;;;;;;15.95;10.50;;;4.10;99.90;;;;;;5057728;28;20255;-83
2021/04/05 02:48:49;;;;;;;12.18;9.40;;;4.90;99.90;;;;;;5058295;28;20207;-83
2021/04/05 02:51:16;;;;;;;13.07;8.93;;;4.80;99.90;;;;;;5054718;28;20219;-82
2021/04/05 02:53:44;;;;;;;15.52;9.20;;;4.60;99.90;;;;;;5049455;28;20203;-83
2021/04/05 02:56:12;;;;;;;15.50;9.18;;;4.00;99.90;;;;;;5052457;28;20339;-83
2021/04/05 02:58:42;;;;;;;13.77;8.95;;;4.50;99.90;;;;;;5046080;28;20603;-83
2021/04/05 03:01:09;;;;;;;10.85;9.00;;;4.60;99.90;;;;;;5045457;28;20204;-83
2021/04/05 03:03:37;;;;;;;17.40;9.07;;;3.70;99.90;;;;;;5043755;28;20230;-83
2021/04/05 03:06:05;;;;;;;15.05;9.55;;;5.50;99.90;;;;;;5045294;28;20223;-83
2021/04/05 03:08:31;;;;;;;13.15;9.30;;;4.70;99.90;;;;;;5044356;28;20208;-83
2021/04/05 03:10:58;;;;;;;13.90;8.85;;;3.90;99.90;;;;;;5043671;28;20236;-83
2021/04/05 03:13:25;;;;;;;18.08;9.57;;;5.50;99.90;;;;;;5043565;28;20204;-83
2021/04/05 03:15:52;;;;;;;12.25;8.10;;;4.60;99.90;;;;;;5042595;28;20560;-83
2021/04/05 03:18:20;;;;;;;13.88;9.73;;;4.70;99.90;;;;;;5043428;28;20203;-83
2021/04/05 03:20:46;;;;;;;16.92;10.52;;;3.60;99.90;;;;;;5041842;28;20215;-83
2021/04/05 03:23:14;;;;;;;14.73;9.43;;;4.90;99.90;;;;;;5042538;28;20207;-83
2021/04/05 03:25:41;;;;;;;17.08;9.82;;;4.70;99.90;;;;;;5042465;28;20220;-83
2021/04/05 03:28:07;;;;;;;11.40;9.65;;;5.20;99.90;;;;;;5042354;28;20203;-83
2021/04/05 03:30:40;;;;;;;12.18;8.80;;;3.40;99.90;;;;;;5042617;28;20262;-83
2021/04/05 03:33:12;;;;;;;18.00;8.38;;;3.50;99.90;;;;;;5042555;28;20258;-83
2021/04/05 03:35:41;;;;;;;13.77;9.70;;;4.60;99.90;;;;;;5042483;28;20652;-83
2021/04/05 03:38:10;;;;;;;15.55;10.50;;;4.60;99.90;;;;;;5041880;28;20740;-82
2021/04/05 03:40:40;;;;;;;12.95;8.55;;;5.10;99.90;;;;;;5040792;28;20733;-83
2021/04/05 03:43:18;;;;;;;21.05;11.65;;;3.60;99.90;;;;;;5040269;28;20234;-81
2021/04/05 03:45:50;;;;;;;21.65;10.20;;;3.80;99.90;;;;;;5039767;28;20227;-81
2021/04/05 03:48:24;;;;;;;14.30;9.30;;;3.70;99.90;;;;;;5040581;28;20191;-81
2021/04/05 03:50:58;;;;;;;18.25;9.98;;;4.10;99.90;;;;;;5041375;28;20207;-81
2021/04/05 03:53:33;;;;;;;26.20;12.07;;;4.50;99.90;;;;;;5040641;28;20198;-81
2021/04/05 03:56:06;;;;;;;22.88;12.80;;;4.50;99.90;;;;;;5050331;28;20249;-82
2021/04/05 03:58:34;;;;;;;20.27;11.88;;;4.70;99.90;;;;;;5041737;28;20184;-83
2021/04/05 04:01:05;;;;;;;23.33;11.80;;;4.40;99.90;;;;;;5042937;28;20204;-82
2021/04/05 04:03:43;;;;;;;22.70;11.80;;;4.80;99.90;;;;;;5042972;28;20631;-82
2021/04/05 04:06:12;;;;;;;24.38;12.73;;;4.80;99.90;;;;;;5042635;28;20228;-83
2021/04/05 04:08:44;;;;;;;26.70;13.05;;;4.60;99.90;;;;;;5043647;28;20234;-83
2021/04/05 04:11:15;;;;;;;20.20;12.82;;;4.80;99.90;;;;;;5042644;28;20203;-83
2021/04/05 04:13:45;;;;;;;25.65;14.00;;;3.80;99.90;;;;;;5041954;28;20188;-83
2021/04/05 04:16:13;;;;;;;31.20;15.00;;;3.80;99.90;;;;;;5041807;28;20314;-82
2021/04/05 04:18:39;;;;;;;27.90;15.48;;;6.10;99.90;;;;;;5041674;28;20675;-83
2021/04/05 04:21:08;;;;;;;26.30;13.98;;;4.80;99.90;;;;;;5041524;28;20254;-82
2021/04/05 04:23:35;;;;;;;25.95;14.35;;;4.60;99.90;;;;;;5042545;28;20574;-82
2021/04/05 04:26:01;;;;;;;28.83;16.77;;;4.60;99.90;;;;;;5041903;28;20224;-82
2021/04/05 04:28:28;;;;;;;26.33;15.52;;;4.80;99.90;;;;;;5042853;28;20592;-82
2021/04/05 04:30:56;;;;;;;30.95;16.15;;;4.00;99.90;;;;;;5043858;28;20199;-83
2021/04/05 04:33:26;;;;;;;22.83;15.50;;;3.80;99.90;;;;;;5041966;28;20224;-83
2021/04/05 04:35:52;;;;;;;28.40;14.68;;;4.00;99.90;;;;;;5043313;28;20219;-82
2021/04/05 04:38:21;;;;;;;27.98;15.55;;;3.80;99.90;;;;;;5047233;28;20203;-82
2021/04/05 04:40:47;;;;;;;31.75;16.65;;;3.80;99.90;;;;;;5042914;28;20204;-83
2021/04/05 04:43:13;;;;;;;28.98;15.90;;;4.80;99.90;;;;;;5041531;28;20195;-83
2021/04/05 04:45:40;;;;;;;28.48;16.52;;;4.80;99.90;;;;;;5041862;28;20215;-81
2021/04/05 04:48:07;;;;;;;32.15;17.48;;;3.80;99.90;;;;;;5040096;28;20203;-80
2021/04/05 04:50:34;;;;;;;30.60;17.00;;;4.70;99.90;;;;;;5038022;28;20508;-80
2021/04/05 04:53:00;;;;;;;30.83;18.42;;;3.80;99.90;;;;;;5038225;28;20474;-80
2021/04/05 04:55:27;;;;;;;28.55;16.20;;;5.10;99.90;;;;;;5077414;22;20227;-86
2021/04/05 04:57:57;;;;;;;36.80;18.58;;;5.00;99.90;;;;;;5069830;28;20210;-86
2021/04/05 05:00:30;;;;;;;33.30;18.05;;;4.80;99.90;;;;;;5072541;28;20259;-86
2021/04/05 05:02:58;;;;;;;32.25;16.25;;;;;;;;;;5073399;28;20270;-86
2021/04/05 05:05:30;;;;;;;29.48;16.02;;;5.10;99.90;;;;;;5069647;28;20223;-86
2021/04/05 05:07:57;;;;;;;32.97;18.35;;;;;;;;;;5061700;28;20646;-86
2021/04/05 05:10:24;;;;;;;27.98;17.35;;;;;;;;;;5067707;28;20195;-86
2021/04/05 05:12:50;;;;;;;26.92;16.13;;;;;;;;;;5066557;28;20222;-86
2021/04/05 05:15:17;;;;;;;29.08;17.40;;;5.20;99.90;;;;;;5062038;28;20326;-87
2021/04/05 05:17:45;;;;;;;37.78;19.42;;;5.20;99.90;;;;;;5066065;28;20206;-86
2021/04/05 05:20:15;;;;;;;30.15;16.40;;;5.30;99.90;;;;;;5067780;28;20211;-87
2021/04/05 05:22:44;;;;;;;33.67;18.88;;;5.90;99.90;;;;;;5068582;28;20203;-87
2021/04/05 05:25:17;;;;;;;31.08;16.02;;;5.30;99.90;;;;;;5067681;28;20238;-87
2021/04/05 05:27:49;;;;;;;32.15;16.65;;;5.30;99.90;;;;;;5067309;28;20234;-87
2021/04/05 05:30:20;;;;;;;36.85;17.25;;;5.60;99.90;;;;;;5072795;28;20188;-87
2021/04/05 05:32:49;;;;;;;32.40;18.98;;;5.40;99.90;;;;;;5072505;28;20298;-87
2021/04/05 05:35:23;;;;;;;38.63;18.95;;;5.40;99.90;;;;;;5070652;28;20222;-87
2021/04/05 05:37:50;;;;;;;31.70;17.85;;;5.40;99.90;;;;;;5069752;28;20223;-86
2021/04/05 05:40:19;;;;;;;30.42;16.55;;;5.00;99.90;;;;;;5069020;28;20213;-85
2021/04/05 05:42:58;;;;;;;32.25;17.50;;;5.60;99.90;;;;;;5067604;28;20199;-86
2021/04/05 05:45:29;;;;;;;34.25;19.10;;;5.60;99.90;;;;;;5069010;28;20439;-86
2021/04/05 05:48:03;;;;;;;35.95;17.85;;;5.80;99.90;;;;;;5075469;28;20187;-85
2021/04/05 05:50:38;;;;;;;31.55;16.83;;;5.50;99.90;;;;;;5068603;28;20221;-85
2021/04/05 05:53:19;;;;;;;28.45;16.20;;;5.60;99.90;;;;;;5069439;28;20207;-85
2021/04/05 05:56:05;;;;;;;28.55;15.55;;;5.70;99.90;;;;;;5073700;28;20242;-86
2021/04/05 05:58:39;;;;;;;26.75;15.48;;;5.80;99.90;;;;;;5070129;28;20199;-86
2021/04/05 06:01:11;;;;;;;29.65;16.67;;;5.70;99.90;;;;;;5064376;28;20187;-86
2021/04/05 06:03:51;;;;;;;32.63;15.73;;;5.50;99.90;;;;;;5075223;28;20190;-86
2021/04/05 06:06:21;;;;;;;32.50;17.55;;;5.80;99.90;;;;;;5073619;28;20249;-86
2021/04/05 06:09:00;;;;;;;27.05;15.77;;;5.50;99.90;;;;;;5071790;28;20203;-86
2021/04/05 06:11:41;;;;;;;29.95;16.65;;;6.00;99.90;;;;;;5062784;28;20191;-86
2021/04/05 06:14:12;;;;;;;33.15;16.75;;;5.60;99.90;;;;;;5061587;28;20191;-86
2021/04/05 06:16:49;;;;;;;30.20;15.35;;;6.00;99.90;;;;;;5062483;28;20333;-84
2021/04/05 06:19:21;;;;;;;33.05;16.35;;;6.50;99.90;;;;;;5066530;28;20587;-84
2021/04/05 06:21:58;;;;;;;31.10;17.15;;;6.10;99.90;;;;;;5066644;28;20183;-85
2021/04/05 06:24:33;;;;;;;29.98;16.00;;;6.40;99.90;;;;;;5064970;28;20255;-84
2021/04/05 06:27:05;;;;;;;32.15;16.15;;;6.10;99.90;;;;;;5065132;28;20222;-84
2021/04/05 06:29:41;;;;;;;29.48;16.00;;;6.40;99.90;;;;;;5064799;28;20191;-84
2021/04/05 06:32:23;;;;;;;30.27;15.75;;;6.10;99.90;;;;;;5065653;28;20264;-87
2021/04/05 06:35:16;;;;;;;27.67;15.60;;;6.20;99.90;;;;;;5063981;28;20235;-88
2021/04/05 06:37:56;;;;;;;23.60;14.70;;;6.40;99.90;;;;;;4970441;28;20214;-88
2021/04/05 06:40:25;;;;;;;26.15;16.77;;;6.40;99.90;;;;;;5072811;28;20211;-87
2021/04/05 06:43:30;;;;;;;27.50;16.35;;;6.40;99.90;;;;;;5073983;28;20229;-87
2021/04/05 06:46:16;;;;;;;26.25;15.05;;;6.30;99.90;;;;;;5054184;28;20222;-87
2021/04/05 06:49:05;;;;;;;25.92;15.30;;;6.50;99.90;;;;;;5073565;28;20233;-87
2021/04/05 06:51:56;;;;;;;24.23;15.50;;;6.50;99.90;;;;;;5066628;28;20214;-87
2021/04/05 06:54:36;;;;;;;25.88;15.80;;;6.20;99.90;;;;;;5063181;28;20264;-87
2021/04/05 06:57:07;;;;;;;29.15;16.77;;;5.10;99.90;;;;;;5060197;28;20237;-87
2021/04/05 06:59:46;;;;;;;30.27;16.33;;;5.80;99.90;;;;;;5059891;28;20188;-87
2021/04/05 07:02:52;;;;;;;29.42;16.60;;;5.40;99.90;;;;;;5059309;28;20302;-87
2021/04/05 07:05:45;;;;;;;26.17;14.65;;;6.40;99.90;;;;;;5058926;28;20602;-87
2021/04/05 07:08:15;;;;;;;37.80;16.90;;;6.40;99.90;;;;;;5058859;28;20195;-88
2021/04/05 07:10:52;;;;;;;30.95;14.90;;;6.30;99.90;;;;;;5059030;28;20183;-89
2021/04/05 07:13:27;;;;;;;29.27;16.35;;;6.60;99.90;;;;;;5059110;28;20233;-86
2021/04/05 07:15:58;;;;;;;24.20;15.43;;;6.20;99.90;;;;;;5061362;28;20245;-86
2021/04/05 07:18:43;;;;;;;33.65;15.23;;;6.40;99.90;;;;;;5062407;28;20187;-86
2021/04/05 07:21:30;;;;;;;28.65;15.32;;;6.60;99.90;;;;;;5059395;28;20191;-76
2021/04/05 07:24:19;;;;;;;28.13;15.65;;;6.60;99.90;;;;;;5055548;28;20195;-77
2021/04/05 07:26:53;;;;;;;29.70;15.75;;;6.50;99.90;;;;;;5061502;28;20188;-85
2021/04/05 07:29:27;;;;;;;33.00;15.75;;;6.40;99.90;;;;;;5062995;28;20254;-86
2021/04/05 07:32:01;;;;;;;29.98;15.50;;;6.50;99.90;;;;;;5061599;28;20577;-86
2021/04/05 07:34:47;;;;;;;30.25;17.30;;;6.50;99.90;;;;;;5062255;28;20210;-86
2021/04/05 07:37:32;;;;;;;24.98;15.38;;;6.00;99.90;;;;;;5059206;28;20210;-86
2021/04/05 07:40:10;;;;;;;28.98;15.50;;;6.20;99.90;;;;;;5058383;28;20596;-86
2021/04/05 07:42:46;;;;;;;27.25;16.20;;;6.70;99.90;;;;;;5058202;28;20618;-86
2021/04/05 07:45:46;;;;;;;29.63;17.33;;;6.10;99.90;;;;;;5059619;28;20249;-85
2021/04/05 07:48:22;;;;;;;25.02;15.05;;;6.20;99.90;;;;;;5071208;28;20183;-86
2021/04/05 07:50:54;;;;;;;24.23;15.57;;;6.20;99.90;;;;;;5075240;28;20186;-86
2021/04/05 07:53:26;;;;;;;28.45;17.30;;;6.20;99.90;;;;;;5075520;28;20215;-86
2021/04/05 07:55:58;;;;;;;30.90;16.85;;;6.20;99.90;;;;;;5068373;28;20257;-85
2021/04/05 08:02:01;;;;;;;27.70;16.13;;;6.20;99.90;;;;;;5065601;28;20203;-85
2021/04/05 08:04:36;;;;;;;29.92;16.77;;;6.20;99.90;;;;;;5064164;28;20570;-85
2021/04/05 08:07:14;;;;;;;27.55;16.88;;;6.20;99.90;;;;;;5066666;28;20206;-86
2021/04/05 08:09:51;;;;;;;26.08;15.90;;;6.20;99.90;;;;;;5066972;28;20620;-86
2021/04/05 08:12:29;;;;;;;34.03;18.27;;;6.10;99.90;;;;;;5061763;28;20245;-85
2021/04/05 08:15:11;;;;;;;31.08;17.90;;;6.10;99.90;;;;;;5061346;28;20703;-86
2021/04/05 08:18:01;;;;;;;31.52;17.58;;;6.00;99.90;;;;;;5059988;28;20187;-85
2021/04/05 08:20:40;;;;;;;35.80;19.58;;;5.90;99.90;;;;;;5067153;28;20225;-85
2021/04/05 08:23:18;;;;;;;30.98;18.63;;;5.90;99.90;;;;;;5060514;28;20213;-85
2021/04/05 08:26:01;;;;;;;32.75;20.00;;;5.90;99.90;;;;;;5060316;28;20611;-86
2021/04/05 08:31:31;;;;;;;33.90;19.00;;;5.90;99.90;;;;;;5056948;28;20210;-85
2021/04/05 08:34:10;;;;;;;36.70;19.20;;;6.00;99.90;;;;;;5060127;28;20276;-85
2021/04/05 08:36:52;;;;;;;37.90;20.75;;;6.00;99.90;;;;;;5060117;28;20214;-86
2021/04/05 08:39:31;;;;;;;36.53;20.15;;;6.00;99.90;;;;;;5059772;28;20305;-85
2021/04/05 08:42:08;;;;;;;34.40;20.90;;;6.50;99.90;;;;;;5059029;28;20563;-85
2021/04/05 08:44:40;;;;;;;37.92;19.67;;;6.00;99.90;;;;;;5059539;28;20618;-85
2021/04/05 08:47:16;;;;;;;43.10;21.08;;;6.60;99.90;;;;;;5059498;28;20256;-85
2021/04/05 08:49:47;;;;;;;37.50;19.33;;;6.40;99.90;;;;;;5058483;28;20301;-85
2021/04/05 08:52:23;;;;;;;39.95;20.15;;;5.50;99.90;;;;;;5060430;28;20219;-86
2021/04/05 08:54:50;;;;;;;38.60;20.02;;;5.50;99.90;;;;;;5062856;28;20261;-85
2021/04/05 08:57:22;;;;;;;44.60;21.92;;;4.30;99.90;;;;;;5062315;28;20214;-86
2021/04/05 08:59:53;;;;;;;39.42;20.58;;;5.00;99.90;;;;;;5064662;28;20199;-85
2021/04/05 09:02:23;;;;;;;39.92;22.02;;;6.10;99.90;;;;;;5076005;28;20307;-85
2021/04/05 09:04:53;;;;;;;43.40;22.42;;;5.50;99.90;;;;;;5076673;28;20249;-85
2021/04/05 09:07:35;;;;;;;45.20;23.33;;;5.80;99.90;;;;;;5077133;28;20178;-85
2021/04/05 09:10:06;;;;;;;41.60;23.35;;;5.70;99.90;;;;;;5076236;28;20187;-85
2021/04/05 09:12:40;;;;;;;41.40;21.65;;;5.70;99.90;;;;;;5075357;28;20242;-86
2021/04/05 09:15:42;;;;;;;43.50;20.67;;;5.80;99.90;;;;;;5074666;28;20233;-85
2021/04/05 09:18:36;;;;;;;39.33;20.38;;;5.90;99.90;;;;;;5070084;28;20206;-86
2021/04/05 09:21:26;;;;;;;34.15;18.50;;;5.90;99.90;;;;;;5066803;28;20187;-86
2021/04/05 09:24:31;;;;;;;42.00;22.88;;;6.10;99.90;;;;;;5076288;28;20220;-85
2021/04/05 09:27:32;;;;;;;42.30;21.38;;;6.00;99.90;;;;;;5075921;28;20194;-85
2021/04/05 09:30:34;;;;;;;46.58;26.15;;;6.00;99.90;;;;;;5065181;28;20207;-85
2021/04/05 09:43:26;;;;;;;8.27;4.65;;;;;;;;;;5048275;28;20205;-86
2021/04/05 09:46:02;;;;;;;5.72;3.78;;;;;;;;;;5076176;28;20225;-86
2021/04/05 09:49:14;;;;;;;4.18;2.78;;;4.40;99.90;;;;;;5076254;28;20202;-85
2021/04/05 09:52:00;;;;;;;4.63;3.28;;;;;;;;;;5076064;28;20249;-85
2021/04/05 09:57:47;;;;;;;4.20;3.00;;;4.20;99.90;;;;;;5063333;28;20188;-86
2021/04/05 10:00:21;;;;;;;2.33;2.10;;;;;;;;;;5072164;28;20207;-85
2021/04/05 10:02:55;;;;;;;3.30;3.10;;;;;;;;;;5069510;28;20187;-86
2021/04/05 10:05:36;;;;;;;2.72;2.50;;;4.40;99.90;;;;;;5075314;22;20665;-86
2021/04/05 10:08:04;;;;;;;1.75;1.65;;;;;;;;;;5065151;28;20241;-86
2021/04/05 10:10:46;;;;;;;1.90;1.60;;;;;;;;;;5063929;28;20211;-86
2021/04/05 10:13:23;;;;;;;1.50;1.40;;;4.20;99.90;;;;;;5066965;28;20223;-86
2021/04/05 10:15:54;;;;;;;1.83;1.73;;;;;;;;;;5068737;28;20227;-87
2021/04/05 10:18:21;;;;;;;3.90;1.90;;;4.30;99.90;;;;;;5073953;22;20238;-81
2021/04/05 10:20:50;;;;;;;5.53;3.28;;;4.30;99.90;;;;;;5049794;28;20611;-80
2021/04/05 10:23:20;;;;;;;6.18;4.07;;;4.40;99.90;;;;;;5051522;28;20210;-80
2021/04/05 10:25:51;;;;;;;2.00;1.90;;;4.30;99.90;;;;;;5053625;28;20204;-80
2021/04/05 10:28:18;;;;;;;1.55;1.45;;;4.10;99.90;;;;;;5051524;28;20274;-80
2021/04/05 10:30:51;;;;;;;3.72;1.85;;;4.60;99.90;;;;;;5050446;28;20208;-82
2021/04/05 10:33:22;;;;;;;5.85;4.55;;;5.00;99.90;;;;;;5051255;28;20212;-80
2021/04/05 10:35:49;;;;;;;2.67;1.33;;;4.70;99.90;;;;;;5053446;28;20219;-80
2021/04/05 10:38:17;;;;;;;2.20;1.77;;;4.80;99.90;;;;;;5052718;28;20223;-80
2021/04/05 10:40:43;;;;;;;2.15;2.00;;;5.00;99.90;;;;;;5052562;28;20199;-80
2021/04/05 10:43:15;;;;;;;1.58;1.48;;;4.60;99.90;;;;;;5052584;28;20254;-80
2021/04/05 10:45:46;;;;;;;1.80;1.55;;;5.00;99.90;;;;;;5054426;28;20199;-80
2021/04/05 10:48:21;;;;;;;1.90;1.70;;;4.80;99.90;;;;;;5051860;28;20219;-79
2021/04/05 10:50:56;;;;;;;2.42;1.77;;;5.10;99.90;;;;;;5051579;28;20251;-80
2021/04/05 10:53:23;;;;;;;2.13;1.42;;;5.10;99.90;;;;;;5049788;28;20207;-79
2021/04/05 10:55:54;;;;;;;2.63;2.20;;;5.40;99.90;;;;;;5051426;28;20208;-80
2021/04/05 10:58:25;;;;;;;1.80;1.50;;;4.80;99.90;;;;;;5050847;28;20227;-79
2021/04/05 11:00:55;;;;;;;2.65;2.08;;;4.80;99.90;;;;;;5048489;28;20192;-79
2021/04/05 11:03:26;;;;;;;1.38;1.27;;;5.50;99.90;;;;;;5050964;28;20185;-79
2021/04/05 11:05:58;;;;;;;1.40;1.30;;;4.80;99.90;;;;;;5051870;28;20192;-80
2021/04/05 11:08:29;;;;;;;3.47;1.80;;;5.40;99.90;;;;;;5050472;28;20228;-79
2021/04/05 11:11:01;;;;;;;2.22;1.33;;;5.40;99.90;;;;;;5050240;28;20192;-80
2021/04/05 11:13:28;;;;;;;1.90;1.80;;;5.40;99.90;;;;;;5049828;28;20208;-80
2021/04/05 11:15:57;;;;;;;1.70;1.60;;;5.30;99.90;;;;;;5049093;28;20204;-79
2021/04/05 11:18:26;;;;;;;2.47;2.38;;;5.20;99.90;;;;;;5048007;28;20246;-80
2021/04/05 11:20:57;;;;;;;2.20;1.88;;;5.00;99.90;;;;;;5046217;28;20203;-80
2021/04/05 11:23:24;;;;;;;2.88;1.60;;;4.80;99.90;;;;;;5043220;28;20184;-81
2021/04/05 11:25:59;;;;;;;2.40;1.60;;;5.10;99.90;;;;;;5041646;28;20212;-81
2021/04/05 11:28:31;;;;;;;3.05;1.90;;;5.30;99.90;;;;;;5042396;28;20227;-81
2021/04/05 11:30:59;;;;;;;2.05;1.75;;;5.20;99.90;;;;;;5043081;28;20238;-81
2021/04/05 11:33:30;;;;;;;10.18;1.77;;;5.30;99.90;;;;;;5043425;28;20242;-81
2021/04/05 11:35:57;;;;;;;1.70;1.48;;;5.50;99.90;;;;;;5042298;28;20188;-80
2021/04/05 11:38:24;;;;;;;1.42;1.33;;;5.20;99.90;;;;;;5041180;28;20253;-81
2021/04/05 11:40:58;;;;;;;6.15;1.58;;;5.70;99.90;;;;;;5042134;28;20203;-81
2021/04/05 11:43:29;;;;;;;1.52;1.42;;;5.60;99.90;;;;;;5042847;28;20647;-81
2021/04/05 11:46:02;;;;;;;2.83;1.20;;;5.50;99.90;;;;;;5044964;28;20192;-81
2021/04/05 11:48:29;;;;;;;1.38;1.27;;;5.50;99.90;;;;;;5050394;28;20207;-82
2021/04/05 11:50:56;;;;;;;1.60;1.40;;;6.30;99.90;;;;;;5052042;28;20200;-83
2021/04/05 11:53:31;;;;;;;1.67;1.52;;;5.80;99.90;;;;;;5044133;28;20254;-81
2021/04/05 11:56:17;;;;;;;2.25;2.05;;;5.80;99.90;;;;;;5043993;28;20218;-82
2021/04/05 11:58:48;;;;;;;3.42;1.10;;;6.30;99.90;;;;;;5041686;28;20457;-82
2021/04/05 12:01:20;;;;;;;3.90;1.30;;;5.40;99.90;;;;;;5044028;28;20638;-81
2021/04/05 12:03:52;;;;;;;3.58;2.13;;;5.50;99.90;;;;;;5043098;28;20291;-81
2021/04/05 12:06:21;;;;;;;2.85;1.10;;;5.80;99.90;;;;;;5042921;28;20188;-80
2021/04/05 12:08:52;;;;;;;2.25;1.20;;;5.80;99.90;;;;;;5045630;28;20224;-82
2021/04/05 12:11:21;;;;;;;1.60;1.05;;;5.90;99.90;;;;;;5045074;28;20589;-81
2021/04/05 12:13:52;;;;;;;2.88;1.40;;;3.30;99.90;;;;;;5043022;28;20605;-81
2021/04/05 12:16:23;;;;;;;1.95;1.60;;;;;;;;;;5042662;28;20242;-82
2021/04/05 12:18:53;;;;;;;2.05;1.30;;;2.50;99.90;;;;;;5042392;28;20239;-82
2021/04/05 12:21:19;;;;;;;1.02;0.93;;;2.30;99.90;;;;;;5043130;28;20203;-81
2021/04/05 12:23:54;;;;;;;4.95;3.63;;;2.30;99.90;;;;;;5042786;28;20261;-81
2021/04/05 12:26:24;;;;;;;2.58;2.15;;;2.40;99.90;;;;;;5046771;28;20639;-80
2021/04/05 12:28:54;;;;;;;3.05;1.95;;;2.60;99.90;;;;;;5042270;28;20248;-81
2021/04/05 12:31:24;;;;;;;1.63;1.52;;;2.60;99.90;;;;;;5043834;28;20235;-82
2021/04/05 12:33:54;;;;;;;3.38;2.30;;;2.80;99.90;;;;;;5043701;28;20764;-81
2021/04/05 12:36:20;;;;;;;2.30;1.65;;;3.10;99.90;;;;;;5044685;28;20258;-80
2021/04/05 12:38:51;;;;;;;2.42;2.22;;;3.30;99.90;;;;;;5045193;28;20223;-82
2021/04/05 12:41:18;;;;;;;1.23;1.23;;;3.60;99.90;;;;;;5044771;28;20238;-81
2021/04/05 12:43:45;;;;;;;1.75;1.00;;;3.80;99.90;;;;;;5045000;28;20207;-82
2021/04/05 12:46:16;;;;;;;2.10;1.50;;;4.00;99.90;;;;;;5043318;28;20199;-82
2021/04/05 12:48:44;;;;;;;1.85;1.10;;;4.10;99.90;;;;;;5042368;28;20227;-82
2021/04/05 12:51:11;;;;;;;1.52;1.30;;;4.30;99.90;;;;;;5041018;28;20215;-81
2021/04/05 12:53:40;;;;;;;2.17;1.30;;;4.30;99.90;;;;;;5042027;28;20224;-82
2021/04/05 12:56:15;;;;;;;1.40;1.30;;;4.40;99.90;;;;;;5041790;28;20207;-82
2021/04/05 12:58:42;;;;;;;3.55;1.20;;;4.40;99.90;;;;;;5042554;28;20218;-81
2021/04/05 13:01:08;;;;;;;1.05;0.95;;;4.30;99.90;;;;;;5041636;28;20218;-82
2021/04/05 13:03:38;;;;;;;3.13;1.83;;;4.20;99.90;;;;;;5040717;28;20260;-81
2021/04/05 13:06:08;;;;;;;1.00;0.90;;;4.20;99.90;;;;;;5039336;28;20207;-81
2021/04/05 13:08:40;;;;;;;1.70;1.15;;;4.10;99.90;;;;;;5040010;28;20265;-82
2021/04/05 13:11:16;;;;;;;1.40;1.30;;;4.10;99.90;;;;;;5038580;28;20203;-81
2021/04/05 13:13:48;;;;;;;1.55;1.38;;;4.20;99.90;;;;;;5041175;28;20215;-81
2021/04/05 13:16:25;;;;;;;2.50;1.88;;;4.30;99.90;;;;;;5043703;28;20232;-79
2021/04/05 13:18:56;;;;;;;5.32;2.25;;;4.50;99.90;;;;;;5047023;28;20591;-79
2021/04/05 13:21:25;;;;;;;1.23;1.13;;;4.50;99.90;;;;;;5049608;28;20188;-80
2021/04/05 13:23:57;;;;;;;6.57;3.88;;;4.40;99.90;;;;;;5046671;28;20266;-80
2021/04/05 13:26:29;;;;;;;2.05;1.27;;;4.50;99.90;;;;;;5044352;28;20188;-79
2021/04/05 13:28:56;;;;;;;1.60;1.38;;;4.70;99.90;;;;;;5041513;28;20595;-81
2021/04/05 13:31:24;;;;;;;2.67;1.38;;;4.80;99.90;;;;;;5040712;28;20226;-81
2021/04/05 13:33:52;;;;;;;0.93;0.90;;;4.70;99.90;;;;;;5040353;28;20647;-81
2021/04/05 13:36:18;;;;;;;1.35;1.27;;;4.80;99.90;;;;;;5041012;28;20234;-80